Time;durP1;ratioP1;P1;durP2;ratioP2;P2;SDS_P1;SDS_P2;PMS_P1;PMS_P2;Temp;Humidity;BMP_temperature;BMP_pressure;BME280_temperature;BME280_humidity;BME280_pressure;Samples;Min_cycle;Max_cycle;Signal;HPM_P1;HPM_P2
2021/06/20 00:00:34;;;;;;;16.67;9.50;;;;;;;18.04;71.30;100409.53;4999169;28;20053;-73
2021/06/20 00:03:00;;;;;;;18.77;9.55;;;;;;;17.98;71.79;100415.50;4993278;28;20049;-71
2021/06/20 00:05:32;;;;;;;20.17;9.82;;;;;;;17.91;72.14;100415.22;4993555;28;20125;-70
2021/06/20 00:08:02;;;;;;;14.77;9.75;;;;;;;17.85;71.84;100415.81;4992214;28;20033;-76
2021/06/20 00:10:29;;;;;;;21.80;10.05;;;;;;;17.75;72.09;100422.03;5010362;28;20034;-74
2021/06/20 00:12:59;;;;;;;20.63;10.45;;;;;;;17.66;72.22;100422.06;5007545;28;20026;-73
2021/06/20 00:15:29;;;;;;;18.65;10.27;;;;;;;17.58;72.49;100420.13;5011367;28;20026;-72
2021/06/20 00:17:55;;;;;;;22.40;11.48;;;;;;;17.48;72.83;100425.47;5011056;28;20041;-72
2021/06/20 00:20:23;;;;;;;20.73;10.70;;;;;;;17.40;73.00;100418.19;4994789;28;20046;-72
2021/06/20 00:22:49;;;;;;;20.45;9.77;;;;;;;17.37;73.39;100417.63;4992140;28;20057;-71
2021/06/20 00:25:15;;;;;;;18.50;9.82;;;;;;;17.38;73.55;100413.97;5018810;28;20037;-70
2021/06/20 00:27:42;;;;;;;15.65;10.02;;;;;;;17.36;73.90;100418.63;5011827;28;20257;-70
2021/06/20 00:30:11;;;;;;;19.50;10.45;;;;;;;17.34;73.89;100413.41;4995052;28;20054;-71
2021/06/20 00:32:37;;;;;;;16.63;10.07;;;;;;;17.29;74.25;100421.88;5011686;28;20049;-72
2021/06/20 00:35:04;;;;;;;23.30;11.38;;;;;;;17.22;74.63;100419.91;5011085;28;20034;-74
2021/06/20 00:37:30;;;;;;;20.80;10.75;;;;;;;17.13;74.92;100416.28;4995794;28;20076;-71
2021/06/20 00:39:56;;;;;;;20.27;10.98;;;;;;;17.07;74.59;100416.84;5010015;28;20534;-71
2021/06/20 00:42:22;;;;;;;22.35;10.95;;;;;;;16.98;75.00;100411.38;5015078;28;20034;-73
2021/06/20 00:44:49;;;;;;;23.15;12.13;;;;;;;16.90;75.21;100413.88;5023759;28;20045;-77
2021/06/20 00:47:16;;;;;;;32.25;12.23;;;;;;;16.87;75.48;100416.81;5005037;28;20161;-72
2021/06/20 00:49:42;;;;;;;20.52;11.70;;;;;;;16.82;75.68;100419.06;5008294;28;20049;-76
2021/06/20 00:52:08;;;;;;;18.67;11.05;;;;;;;16.82;76.12;100413.72;5029787;28;20041;-72
2021/06/20 00:54:34;;;;;;;18.15;11.15;;;;;;;16.82;75.62;100411.91;4997105;28;20487;-72
2021/06/20 00:57:01;;;;;;;24.38;12.13;;;;;;;16.81;75.57;100417.41;5005771;28;20026;-72
2021/06/20 00:59:28;;;;;;;17.48;11.45;;;;;;;16.85;75.98;100418.81;5000264;28;20544;-72
2021/06/20 01:01:54;;;;;;;21.67;11.40;;;;;;;16.87;75.68;100416.81;5014729;28;20038;-71
2021/06/20 01:04:19;;;;;;;18.48;10.70;;;;;;;16.89;75.67;100411.34;5003688;28;20081;-73
2021/06/20 01:06:45;;;;;;;18.95;10.82;;;;;;;16.90;75.70;100411.19;4995562;28;20438;-71
2021/06/20 01:09:11;;;;;;;19.00;11.18;;;;;;;16.92;75.64;100429.78;4994948;28;20037;-73
2021/06/20 01:11:37;;;;;;;21.77;10.95;;;;;;;16.96;75.72;100425.88;5008818;28;20065;-71
2021/06/20 01:14:03;;;;;;;21.30;11.93;;;;;;;16.94;75.79;100426.00;5009858;28;20045;-72
2021/06/20 01:16:30;;;;;;;19.65;11.15;;;;;;;16.94;76.16;100433.19;4997619;28;20029;-71
2021/06/20 01:18:57;;;;;;;22.77;11.57;;;;;;;16.95;75.83;100430.34;5011856;28;20033;-71
2021/06/20 01:21:23;;;;;;;21.73;11.77;;;;;;;16.99;75.65;100436.25;4993799;28;20042;-74
2021/06/20 01:23:49;;;;;;;21.67;12.68;;;;;;;17.03;74.87;100431.47;5002878;28;20163;-72
2021/06/20 01:26:15;;;;;;;27.98;14.52;;;;;;;17.05;74.52;100426.84;5011502;28;20426;-73
2021/06/20 01:28:49;;;;;;;22.35;13.10;;;;;;;17.02;74.81;100429.78;5013764;28;20038;-72
2021/06/20 01:31:15;;;;;;;26.65;14.02;;;;;;;16.96;75.04;100433.88;5013953;28;20105;-73
2021/06/20 01:33:40;;;;;;;31.42;15.52;;;;;;;16.97;74.95;100431.06;4999103;28;20684;-71
2021/06/20 01:36:06;;;;;;;29.58;15.88;;;;;;;17.00;74.63;100421.91;4996466;28;20039;-71
2021/06/20 01:38:32;;;;;;;20.15;14.95;;;;;;;17.02;74.50;100429.78;4994928;28;20113;-69
2021/06/20 01:40:58;;;;;;;28.70;14.18;;;;;;;17.06;74.55;100436.53;4994310;28;20034;-72
2021/06/20 01:43:24;;;;;;;24.92;13.95;;;;;;;17.08;74.52;100431.91;5000860;28;20052;-71
2021/06/20 01:45:50;;;;;;;22.05;13.48;;;;;;;17.12;74.72;100435.97;5033865;28;20402;-75
2021/06/20 01:48:15;;;;;;;24.40;13.80;;;;;;;17.13;74.98;100443.00;5011374;28;20026;-72
2021/06/20 01:50:41;;;;;;;28.98;15.73;;;;;;;17.15;74.69;100435.69;5014128;28;20144;-69
2021/06/20 01:53:10;;;;;;;25.33;14.60;;;;;;;17.13;74.40;100437.66;5013672;28;20088;-69
2021/06/20 01:55:38;;;;;;;25.55;14.98;;;;;;;17.14;74.64;100440.19;5014047;28;20041;-72
2021/06/20 01:58:07;;;;;;;22.17;13.05;;;;;;;17.20;74.39;100449.47;5001753;28;20053;-69
2021/06/20 02:00:35;;;;;;;30.10;14.38;;;;;;;17.24;74.11;100444.69;4994451;28;20168;-69
2021/06/20 02:03:25;;;;;;;23.70;14.57;;;;;;;17.28;73.83;100441.59;5013252;28;20115;-71
2021/06/20 02:05:53;;;;;;;26.70;14.98;;;;;;;17.28;74.04;100446.06;4995700;28;20061;-69
2021/06/20 02:08:19;;;;;;;28.92;15.35;;;;;;;17.24;74.20;100448.19;5006622;28;20522;-71
2021/06/20 02:10:49;;;;;;;32.10;15.18;;;;;;;17.26;74.38;100453.41;5013630;28;20048;-72
2021/06/20 02:13:16;;;;;;;24.30;14.50;;;;;;;17.27;74.38;100450.59;5010398;28;20042;-71
2021/06/20 02:15:42;;;;;;;23.20;14.50;;;;;;;17.29;74.19;100455.78;5013744;28;20163;-71
2021/06/20 02:18:09;;;;;;;23.45;15.05;;;;;;;17.33;74.09;100453.69;5008194;28;20037;-71
2021/06/20 02:20:35;;;;;;;25.02;14.40;;;;;;;17.38;74.03;100459.44;4999862;28;20034;-69
2021/06/20 02:23:00;;;;;;;26.23;13.88;;;;;;;17.41;74.03;100456.50;4994318;28;20046;-73
2021/06/20 02:25:27;;;;;;;31.67;14.45;;;;;;;17.40;73.66;100466.31;5004921;28;20037;-73
2021/06/20 02:27:54;;;;;;;23.98;15.07;;;;;;;17.46;73.34;100459.56;5006980;28;20069;-73
2021/06/20 02:30:21;;;;;;;28.83;15.20;;;;;;;17.50;73.22;100463.63;4993604;28;20037;-71
2021/06/20 02:32:48;;;;;;;24.83;14.80;;;;;;;17.52;73.54;100455.47;5000861;28;20479;-72
2021/06/20 02:35:15;;;;;;;24.17;14.65;;;;;;;17.54;73.51;100457.00;5013334;28;20041;-70
2021/06/20 02:37:42;;;;;;;23.10;14.27;;;;;;;17.60;73.44;100464.44;5006331;28;20502;-69
2021/06/20 02:40:10;;;;;;;20.45;14.02;;;;;;;17.64;73.33;100462.34;5003176;28;20050;-73
2021/06/20 02:42:36;;;;;;;25.42;16.17;;;;;;;17.69;72.31;100467.25;5012577;28;20042;-71
2021/06/20 02:45:08;;;;;;;24.77;15.48;;;;;;;17.76;72.06;100468.38;4990967;28;20037;-70
2021/06/20 02:47:34;;;;;;;23.52;15.45;;;;;;;17.80;72.15;100469.75;4998403;28;20034;-73
2021/06/20 02:50:00;;;;;;;26.95;15.68;;;;;;;17.86;71.72;100469.19;5012178;28;20049;-70
2021/06/20 02:52:26;;;;;;;30.17;16.75;;;;;;;17.91;71.53;100469.56;5007839;28;20050;-72
2021/06/20 02:54:52;;;;;;;27.40;16.10;;;;;;;17.95;71.53;100465.63;4993416;28;20042;-71
2021/06/20 02:57:23;;;;;;;29.98;17.17;;;;;;;18.05;71.04;100470.13;4994756;28;20046;-71
2021/06/20 02:59:50;;;;;;;29.13;16.92;;;;;;;18.10;70.98;100467.84;4993222;28;20045;-73
2021/06/20 03:02:16;;;;;;;26.07;16.33;;;;;;;18.16;70.79;100472.59;4997212;28;20423;-72
2021/06/20 03:04:42;;;;;;;24.65;17.00;;;;;;;18.22;70.25;100466.66;5008364;28;20057;-71
2021/06/20 03:07:08;;;;;;;25.08;17.33;;;;;;;18.29;70.17;100463.38;4997250;28;20046;-70
2021/06/20 03:09:35;;;;;;;26.23;17.08;;;;;;;18.36;70.16;100457.28;5005535;28;20049;-73
2021/06/20 03:12:07;;;;;;;21.80;17.77;;;;;;;18.40;70.90;100457.81;5010377;28;20030;-71
2021/06/20 03:14:34;;;;;;;30.77;19.90;;;;;;;18.45;70.93;100465.41;5012551;28;20181;-69
2021/06/20 03:17:02;;;;;;;28.42;19.17;;;;;;;18.51;70.73;100456.78;5010829;28;20052;-73
2021/06/20 03:19:28;;;;;;;;;;;;;;;18.57;70.71;100462.38;5010961;28;20041;-72
2021/06/20 03:21:59;;;;;;;23.83;18.13;;;;;;;18.62;70.24;100451.19;5009871;28;19975;-75
2021/06/20 03:24:27;;;;;;;28.13;17.10;;;;;;;18.71;68.96;100449.44;4991615;28;20065;-71
2021/06/20 03:26:52;;;;;;;27.60;17.80;;;;;;;18.82;68.92;100457.25;4993631;28;20041;-70
2021/06/20 03:29:18;;;;;;;26.33;17.48;;;;;;;18.90;68.69;100460.06;5009129;28;20475;-71
2021/06/20 03:31:44;;;;;;;28.63;17.90;;;;;;;18.98;68.24;100455.75;5003782;28;20057;-71
2021/06/20 03:34:09;;;;;;;27.38;16.55;;;;;;;19.02;67.23;100462.50;4992375;28;20435;-70
2021/06/20 03:36:35;;;;;;;21.80;14.98;;;;;;;19.10;66.79;100457.19;5007376;28;20141;-69
2021/06/20 03:39:01;;;;;;;22.02;13.80;;;;;;;19.13;66.02;100454.22;4993304;28;20038;-70
2021/06/20 03:41:27;;;;;;;19.08;13.85;;;;;;;19.21;65.81;100456.94;4993399;28;20049;-71
2021/06/20 03:43:53;;;;;;;19.40;12.98;;;;;;;19.29;65.06;100458.00;4993596;28;20026;-72
2021/06/20 03:46:18;;;;;;;21.10;13.50;;;;;;;19.38;65.32;100454.41;5008674;28;20125;-71
2021/06/20 03:48:45;;;;;;;19.77;13.27;;;;;;;19.47;64.95;100453.47;5010870;28;20041;-73
2021/06/20 03:51:11;;;;;;;16.75;11.98;;;;;;;19.55;64.44;100453.53;5009296;28;20041;-72
2021/06/20 03:53:37;;;;;;;19.83;12.88;;;;;;;19.74;64.69;100451.63;5010331;28;20068;-72
2021/06/20 03:56:03;;;;;;;18.77;12.70;;;;;;;21.12;61.13;100451.41;5002895;28;20058;-70
2021/06/20 03:58:29;;;;;;;17.05;13.88;;;;;;;22.97;55.44;100447.69;4992650;28;20479;-73
2021/06/20 04:00:55;;;;;;;18.67;13.80;;;;;;;24.35;51.85;100445.59;5010287;28;20038;-72
2021/06/20 04:03:21;;;;;;;18.98;14.38;;;;;;;25.47;48.99;100451.50;5002729;28;20096;-73
2021/06/20 04:05:47;;;;;;;20.30;13.70;;;;;;;26.42;46.41;100450.16;5007482;28;20093;-70
2021/06/20 04:08:13;;;;;;;20.65;14.23;;;;;;;27.50;44.26;100438.38;4996021;28;20073;-71
2021/06/20 04:10:39;;;;;;;16.90;13.13;;;;;;;28.42;42.29;100440.19;4997216;28;20062;-72
2021/06/20 04:13:05;;;;;;;18.38;12.07;;;;;;;29.20;40.18;100436.31;5003033;28;20049;-71
2021/06/20 04:15:30;;;;;;;14.68;11.35;;;;;;;30.09;38.26;100443.41;5014348;28;20475;-72
2021/06/20 04:17:56;;;;;;;15.55;11.40;;;;;;;30.63;37.31;100443.53;4997321;28;20046;-72
2021/06/20 04:20:22;;;;;;;18.38;12.88;;;;;;;30.78;36.12;100439.53;5001648;28;20038;-71
2021/06/20 04:22:48;;;;;;;16.10;11.35;;;;;;;31.43;35.29;100430.47;5012099;28;20538;-71
2021/06/20 04:25:15;;;;;;;15.00;11.35;;;;;;;32.14;34.22;100434.19;5008683;28;20061;-71
2021/06/20 04:27:45;;;;;;;;;;;;;;;32.86;33.02;100430.91;4996431;28;20034;-73
2021/06/20 04:30:13;;;;;;;18.00;10.65;;;;;;;33.44;32.32;100430.72;4995940;28;19985;-74
2021/06/20 04:32:40;;;;;;;16.23;10.38;;;;;;;33.37;32.10;100441.88;5014250;28;20533;-71
2021/06/20 04:35:07;;;;;;;15.90;10.40;;;;;;;34.25;30.69;100434.78;5003434;28;20041;-74
2021/06/20 04:37:34;;;;;;;14.40;9.57;;;;;;;34.82;29.58;100432.63;5011335;28;20057;-75
2021/06/20 04:40:00;;;;;;;;;;;;;;;34.35;29.71;100429.44;5014884;28;20042;-75
2021/06/20 04:42:34;;;;;;;14.85;9.68;;;;;;;34.92;29.89;100431.88;5011927;28;19948;-72
2021/06/20 04:45:00;;;;;;;13.88;9.75;;;;;;;36.10;27.99;100424.34;5010905;28;20046;-77
2021/06/20 04:47:27;;;;;;;;;;;;;;;36.39;27.42;100420.28;4996772;28;20450;-71
2021/06/20 04:49:53;;;;;;;13.60;10.40;;;;;;;35.95;28.80;100419.63;5000654;28;19913;-73
2021/06/20 04:52:19;;;;;;;10.68;7.25;;;;;;;36.75;26.53;100417.56;5000367;28;20033;-72
2021/06/20 04:54:52;;;;;;;16.45;9.63;;;;;;;37.46;26.59;100418.66;4995486;28;20049;-72
2021/06/20 04:57:28;;;;;;;13.32;8.07;;;;;;;37.07;26.56;100411.81;5005395;28;20052;-73
2021/06/20 04:59:57;;;;;;;8.10;7.30;;;;;;;37.15;26.37;100421.44;4996481;28;20149;-74
2021/06/20 05:02:23;;;;;;;10.55;6.78;;;;;;;37.77;25.34;100415.75;4995080;28;20045;-72
2021/06/20 05:04:49;;;;;;;9.00;5.38;;;;;;;37.14;25.27;100419.78;5010050;28;20553;-74
2021/06/20 05:07:16;;;;;;;8.57;6.53;;;;;;;36.86;26.09;100419.28;5007965;28;20218;-73
2021/06/20 05:09:43;;;;;;;11.98;7.53;;;;;;;36.27;26.69;100420.53;5005412;28;20546;-72
2021/06/20 05:12:09;;;;;;;9.27;7.22;;;;;;;37.54;25.51;100420.00;5004057;28;20045;-71
2021/06/20 05:14:36;;;;;;;14.27;8.10;;;;;;;38.56;24.98;100419.78;5004215;28;20511;-74
2021/06/20 05:17:02;;;;;;;11.75;7.60;;;;;;;39.56;24.06;100417.47;5003943;28;20077;-70
2021/06/20 05:19:28;;;;;;;11.32;7.82;;;;;;;40.25;22.94;100417.16;5001885;28;20029;-70
2021/06/20 05:21:55;;;;;;;8.05;7.20;;;;;;;40.04;23.21;100415.78;5002237;28;20494;-77
2021/06/20 05:24:20;;;;;;;;;;;;;;;39.98;23.20;100415.03;5002944;28;20081;-74
2021/06/20 05:26:50;;;;;;;12.63;7.35;;;;;;;40.24;22.50;100417.44;4999749;28;20394;-72
2021/06/20 05:29:16;;;;;;;11.15;6.68;;;;;;;40.84;22.08;100415.94;5000682;28;20041;-71
2021/06/20 05:31:42;;;;;;;9.43;6.28;;;;;;;40.02;22.27;100420.81;5012295;28;20029;-78
2021/06/20 05:34:08;;;;;;;11.77;6.55;;;;;;;39.29;22.60;100421.66;5001951;28;20045;-74
2021/06/20 05:36:34;;;;;;;12.82;7.93;;;;;;;40.05;22.48;100414.66;5002373;28;20049;-73
2021/06/20 05:38:59;;;;;;;;;;;;;;;39.95;22.58;100416.47;4996926;28;20038;-73
2021/06/20 05:41:25;;;;;;;11.30;6.35;;;;;;;40.04;22.34;100419.38;4997371;28;19921;-76
2021/06/20 05:43:53;;;;;;;8.63;5.60;;;;;;;39.46;22.72;100423.13;5002818;28;20053;-75
2021/06/20 05:46:19;;;;;;;9.30;5.30;;;;;;;39.73;22.79;100417.03;5001479;28;20116;-75
2021/06/20 05:48:45;;;;;;;8.52;4.90;;;;;;;41.21;21.39;100416.97;5008051;28;20029;-74
2021/06/20 05:51:11;;;;;;;9.75;5.63;;;;;;;40.54;21.67;100416.16;5002482;28;20030;-73
2021/06/20 05:53:37;;;;;;;;;;;;;;;39.57;22.30;100415.53;5011182;28;20053;-77
2021/06/20 05:56:03;;;;;;;5.70;4.65;;;;;;;40.85;21.25;100407.34;5003707;28;19972;-75
2021/06/20 05:58:29;;;;;;;;;;;;;;;42.24;19.70;100402.91;5009695;28;20057;-75
2021/06/20 06:00:55;;;;;;;8.05;5.43;;;;;;;42.34;20.04;100406.28;4998411;28;20335;-73
2021/06/20 06:03:21;;;;;;;6.65;4.60;;;;;;;42.32;19.04;100408.59;5007530;28;20117;-75
2021/06/20 06:05:46;;;;;;;;;;;;;;;42.62;18.97;100408.97;5011187;28;20117;-74
2021/06/20 06:08:12;;;;;;;6.75;4.90;;;;;;;42.44;19.23;100404.41;5026395;28;20381;-73
2021/06/20 06:10:38;;;;;;;;;;;;;;;42.35;18.95;100402.38;5003537;28;20480;-77
2021/06/20 06:13:04;;;;;;;7.50;3.63;;;;;;;43.23;18.64;100407.69;5013139;28;20497;-81
2021/06/20 06:15:30;;;;;;;;;;;;;;;42.22;19.19;100408.78;5016553;28;20040;-79
2021/06/20 06:17:56;;;;;;;11.02;4.30;;;;;;;42.40;19.00;100403.38;4978452;28;19913;-77
2021/06/20 06:20:23;;;;;;;5.00;4.30;;;;;;;43.13;18.13;100397.66;5005026;28;20121;-78
2021/06/20 06:22:49;;;;;;;4.45;3.38;;;;;;;43.77;17.41;100413.13;4990595;28;20038;-78
2021/06/20 06:25:15;;;;;;;4.35;3.35;;;;;;;43.51;17.65;100411.06;5010602;28;20599;-78
2021/06/20 06:27:42;;;;;;;7.60;3.60;;;;;;;43.84;17.57;100413.44;4976311;28;20133;-84
2021/06/20 06:30:11;;;;;;;8.07;4.40;;;;;;;43.27;18.04;100412.28;5009934;28;20034;-79
2021/06/20 06:32:38;;;;;;;7.40;4.15;;;;;;;42.55;18.94;100414.13;5012498;28;20030;-77
2021/06/20 06:35:04;;;;;;;3.88;3.28;;;;;;;43.47;17.73;100410.06;5012308;28;20029;-78
2021/06/20 06:37:30;;;;;;;4.68;2.60;;;;;;;43.17;17.08;100412.59;5010771;28;20185;-82
2021/06/20 06:39:56;;;;;;;4.10;2.13;;;;;;;43.59;16.74;100406.69;4994554;28;20159;-84
2021/06/20 06:42:26;;;;;;;3.47;2.05;;;;;;;43.56;17.10;100402.56;4993367;28;20472;-77
2021/06/20 06:44:56;;;;;;;5.53;2.47;;;;;;;42.18;17.74;100407.75;4993960;28;20044;-80
2021/06/20 06:47:23;;;;;;;2.70;2.17;;;;;;;42.55;17.33;100407.72;4995073;28;20038;-79
2021/06/20 06:49:49;;;;;;;4.68;1.80;;;;;;;41.17;18.46;100394.56;4993139;28;20039;-83
2021/06/20 06:52:15;;;;;;;2.90;1.70;;;;;;;40.71;18.49;100401.75;4979580;28;20031;-80
2021/06/20 06:54:50;;;;;;;3.03;1.60;;;;;;;42.49;17.27;100398.72;5000314;28;20137;-76
2021/06/20 06:57:20;;;;;;;3.92;1.50;;;;;;;41.83;16.97;100401.88;5005910;28;20200;-80
2021/06/20 06:59:46;;;;;;;5.20;1.80;;;;;;;41.86;17.79;100395.69;4999291;28;20046;-79
2021/06/20 07:02:12;;;;;;;5.50;1.85;;;;;;;42.71;17.04;100397.06;4995457;28;20034;-83
2021/06/20 07:04:38;;;;;;;3.53;2.25;;;;;;;42.73;17.52;100398.41;4975531;28;20022;-81
2021/06/20 07:07:04;;;;;;;4.75;2.25;;;;;;;41.65;18.47;100393.34;5002736;28;20192;-77
2021/06/20 07:09:30;;;;;;;4.57;2.30;;;;;;;41.56;17.98;100400.75;5002518;28;20109;-77
2021/06/20 07:11:56;;;;;;;5.15;2.00;;;;;;;41.87;17.61;100394.56;5003245;28;20046;-79
2021/06/20 07:14:22;;;;;;;5.55;2.78;;;;;;;41.43;18.09;100396.88;4977381;28;20036;-73
2021/06/20 07:16:48;;;;;;;3.03;2.10;;;;;;;41.54;18.60;100391.94;5001123;28;20034;-79
2021/06/20 07:19:13;;;;;;;;;;;;;;;42.94;17.34;100390.31;5003741;28;20045;-78
2021/06/20 07:21:39;;;;;;;7.95;4.55;;;;;;;44.19;15.97;100390.38;5005681;28;19913;-80
2021/06/20 07:24:05;;;;;;;3.28;2.00;;;;;;;43.88;16.12;100397.72;4992525;28;20038;-80
2021/06/20 07:26:31;;;;;;;3.50;2.38;;;;;;;43.69;16.42;100391.63;4992868;28;20030;-79
2021/06/20 07:28:58;;;;;;;3.55;2.20;;;;;;;42.94;16.95;100398.66;4992723;28;20045;-76
2021/06/20 07:31:24;;;;;;;5.78;2.63;;;;;;;42.12;18.39;100378.44;4992866;28;20050;-77
2021/06/20 07:33:49;;;;;;;3.45;2.20;;;;;;;42.91;17.09;100393.75;4992173;28;20065;-78
2021/06/20 07:36:16;;;;;;;3.75;2.38;;;;;;;42.71;17.43;100384.00;4991521;28;20050;-77
2021/06/20 07:38:45;;;;;;;7.18;2.30;;;;;;;43.15;17.16;100389.81;4997975;28;20438;-77
2021/06/20 07:41:13;;;;;;;5.28;2.65;;;;;;;42.17;17.62;100381.94;5011451;28;20426;-79
2021/06/20 07:43:38;;;;;;;5.72;2.20;;;;;;;40.38;19.06;100378.72;5012434;28;20034;-77
2021/06/20 07:46:05;;;;;;;3.45;2.20;;;;;;;41.21;18.49;100378.13;5012079;28;20379;-77
2021/06/20 07:48:30;;;;;;;;;;;;;;;42.70;18.02;100381.50;4995452;28;20045;-80
2021/06/20 07:50:56;;;;;;;4.00;2.20;;;;;;;43.95;16.22;100377.75;4995050;28;20047;-79
2021/06/20 07:53:22;;;;;;;2.97;1.90;;;;;;;43.81;15.79;100375.09;5011177;28;20042;-76
2021/06/20 07:55:49;;;;;;;3.58;2.47;;;;;;;44.98;15.53;100373.50;5012049;28;20391;-75
2021/06/20 07:58:15;;;;;;;3.40;2.45;;;;;;;42.95;17.14;100372.47;4994096;28;20084;-75
2021/06/20 08:00:41;;;;;;;3.60;2.58;;;;;;;40.88;18.88;100381.75;5012453;28;20435;-79
2021/06/20 08:03:07;;;;;;;4.30;2.75;;;;;;;40.67;19.06;100370.19;5011818;28;20490;-80
2021/06/20 08:05:33;;;;;;;3.88;2.50;;;;;;;41.82;17.86;100366.88;4994697;28;20100;-80
2021/06/20 08:07:59;;;;;;;4.85;2.50;;;;;;;42.38;17.64;100372.31;5010544;28;20038;-79
2021/06/20 08:10:25;;;;;;;8.45;2.50;;;;;;;41.66;18.47;100367.22;5010812;28;20034;-80
2021/06/20 08:12:51;;;;;;;6.75;2.45;;;;;;;40.46;19.48;100363.34;5011978;28;20034;-77
2021/06/20 08:15:17;;;;;;;;;;;;;;;39.71;20.21;100371.34;5010329;28;20068;-73
2021/06/20 08:17:43;;;;;;;3.28;2.65;;;;;;;39.58;20.29;100367.31;5011850;28;19909;-82
2021/06/20 08:20:11;;;;;;;3.45;2.50;;;;;;;40.37;19.67;100358.47;5010454;28;20041;-74
2021/06/20 08:22:41;;;;;;;7.75;2.80;;;;;;;41.14;18.74;100355.50;5010404;28;20356;-75
2021/06/20 08:25:09;;;;;;;8.60;5.03;;;;;;;41.39;18.56;100363.31;5011452;28;20041;-75
2021/06/20 08:27:37;;;;;;;5.57;2.88;;;;;;;41.54;18.92;100376.06;5010541;28;20046;-78
2021/06/20 08:30:05;;;;;;;4.85;3.63;;;;;;;41.42;18.52;100364.66;5010303;28;20044;-78
2021/06/20 08:32:32;;;;;;;4.07;2.55;;;;;;;40.80;19.08;100362.22;5011570;28;20029;-74
2021/06/20 08:35:02;;;;;;;5.75;2.55;;;;;;;40.91;19.29;100360.91;5010446;28;20034;-75
2021/06/20 08:37:29;;;;;;;4.55;2.95;;;;;;;41.76;18.41;100365.34;5011289;28;20042;-77
2021/06/20 08:39:55;;;;;;;3.38;2.75;;;;;;;43.13;17.16;100361.44;5011832;28;20044;-77
2021/06/20 08:42:21;;;;;;;5.35;2.70;;;;;;;42.88;17.51;100366.56;5011338;28;20045;-78
2021/06/20 08:44:47;;;;;;;6.85;3.03;;;;;;;43.51;17.11;100365.66;5023101;28;20056;-75
2021/06/20 08:47:13;;;;;;;4.05;2.60;;;;;;;43.94;16.68;100363.00;5047251;28;20055;-78
2021/06/20 08:49:39;;;;;;;4.13;2.78;;;;;;;42.23;18.01;100365.94;5050455;28;20511;-84
2021/06/20 08:52:06;;;;;;;3.28;2.70;;;;;;;42.64;17.80;100364.13;5034042;28;20044;-83
2021/06/20 08:54:32;;;;;;;2.63;2.40;;;;;;;43.27;17.09;100364.94;5033782;28;20159;-78
2021/06/20 08:56:58;;;;;;;4.70;2.47;;;;;;;43.51;16.69;100363.69;5020942;28;20030;-75
2021/06/20 08:59:26;;;;;;;6.13;2.45;;;;;;;42.67;17.33;100353.19;5004218;28;20073;-75
2021/06/20 09:01:52;;;;;;;6.80;3.70;;;;;;;41.54;18.85;100350.28;4994133;28;20043;-76
2021/06/20 09:04:34;;;;;;;7.80;4.35;;;;;;;41.21;18.55;100345.66;4993514;28;20388;-79
2021/06/20 09:07:02;;;;;;;3.90;3.08;;;;;;;42.19;17.92;100339.91;5000961;28;20039;-81
2021/06/20 09:09:30;;;;;;;5.10;2.75;;;;;;;42.97;17.41;100334.03;5011039;28;20065;-83
2021/06/20 09:12:12;;;;;;;5.00;2.95;;;;;;;43.87;16.78;100342.28;5013705;28;20128;-79
2021/06/20 09:14:46;;;;;;;3.55;2.40;;;;;;;42.43;17.91;100328.47;5014385;28;20038;-78
2021/06/20 09:17:23;;;;;;;3.10;2.20;;;;;;;40.95;19.17;100336.97;5030088;28;20045;-80
2021/06/20 09:20:01;;;;;;;4.10;2.78;;;;;;;39.37;20.59;100339.91;5013480;28;20034;-78
2021/06/20 09:22:27;;;;;;;6.75;2.85;;;;;;;39.12;20.76;100328.00;5014481;28;20102;-79
2021/06/20 09:25:23;;;;;;;3.53;2.55;;;;;;;39.07;20.95;100336.34;5007289;28;20082;-76
2021/06/20 09:28:02;;;;;;;2.60;2.33;;;;;;;39.69;20.64;100319.00;5001328;28;20042;-78
2021/06/20 09:30:30;;;;;;;6.03;2.50;;;;;;;39.37;20.60;100312.22;5004319;28;20048;-77
2021/06/20 09:33:01;;;;;;;5.38;2.42;;;;;;;39.08;20.99;100315.88;4994666;28;20101;-77
2021/06/20 09:35:47;;;;;;;4.85;3.30;;;;;;;38.91;21.06;100315.53;5007780;28;20029;-77
2021/06/20 09:38:26;;;;;;;6.43;2.63;;;;;;;39.11;21.06;100314.47;5009637;28;20050;-76
2021/06/20 09:41:11;;;;;;;5.95;2.47;;;;;;;38.20;21.84;100319.41;5001391;28;20042;-76
2021/06/20 09:43:39;;;;;;;5.68;2.28;;;;;;;38.40;21.03;100316.81;5010606;28;20578;-74
2021/06/20 09:46:10;;;;;;;3.35;2.47;;;;;;;39.04;20.79;100305.69;4993814;28;20057;-79
2021/06/20 09:48:36;;;;;;;7.30;2.33;;;;;;;37.95;22.13;100309.38;4994350;28;20105;-76
2021/06/20 09:51:34;;;;;;;2.88;2.13;;;;;;;38.16;21.59;100307.28;5005187;28;20038;-75
2021/06/20 09:54:00;;;;;;;3.55;2.30;;;;;;;38.31;21.66;100298.09;4987408;28;20465;-79
2021/06/20 09:56:29;;;;;;;4.13;2.38;;;;;;;37.98;22.17;100299.69;4970437;28;20042;-78
2021/06/20 09:59:05;;;;;;;5.93;2.03;;;;;;;37.68;21.75;100295.97;4984616;28;20050;-80
2021/06/20 10:01:33;;;;;;;3.95;2.33;;;;;;;37.90;22.33;100292.84;4986305;28;20117;-79
2021/06/20 10:03:59;;;;;;;10.60;3.15;;;;;;;38.27;21.93;100285.09;4983343;28;20551;-80
2021/06/20 10:06:26;;;;;;;8.70;3.13;;;;;;;38.57;21.62;100288.72;4973513;28;20050;-77
2021/06/20 10:08:52;;;;;;;6.28;2.33;;;;;;;38.58;21.45;100282.06;4979222;28;20030;-80
2021/06/20 10:11:18;;;;;;;4.72;2.65;;;;;;;38.07;22.18;100289.66;4985939;28;20444;-79
2021/06/20 10:13:45;;;;;;;3.67;2.75;;;;;;;37.15;23.40;100280.75;4988488;28;20157;-80
2021/06/20 10:16:30;;;;;;;4.80;2.78;;;;;;;37.12;22.93;100284.06;4990527;28;20078;-77
2021/06/20 10:18:59;;;;;;;3.97;2.70;;;;;;;36.84;23.40;100285.50;4975770;28;20042;-80
2021/06/20 10:21:34;;;;;;;4.85;2.63;;;;;;;36.69;23.00;100281.69;4974580;28;20073;-79
2021/06/20 10:24:18;;;;;;;6.35;3.13;;;;;;;35.82;24.62;100278.88;4976222;28;20430;-79
2021/06/20 10:27:01;;;;;;;6.35;2.50;;;;;;;36.12;24.24;100267.09;4989585;28;20030;-83
2021/06/20 10:29:29;;;;;;;4.32;2.88;;;;;;;36.18;24.34;100274.25;4977898;28;20121;-79
2021/06/20 10:31:56;;;;;;;6.82;3.88;;;;;;;36.05;24.62;100269.28;4979405;28;20038;-78
2021/06/20 10:34:28;;;;;;;5.43;3.67;;;;;;;36.18;23.77;100271.50;4992454;28;20060;-81
2021/06/20 10:36:59;;;;;;;6.32;2.85;;;;;;;36.78;23.71;100261.84;5012662;28;20042;-77
2021/06/20 10:39:28;;;;;;;6.03;3.00;;;;;;;36.37;23.52;100262.72;5009604;28;20061;-77
2021/06/20 10:42:09;;;;;;;5.82;3.22;;;;;;;35.51;24.60;100260.34;5009979;28;20056;-76
2021/06/20 10:44:45;;;;;;;5.00;2.58;;;;;;;35.46;25.20;100254.84;5005619;28;20045;-77
2021/06/20 10:47:11;;;;;;;5.82;3.05;;;;;;;35.51;25.44;100257.59;5013416;28;20503;-81
2021/06/20 10:49:39;;;;;;;4.43;3.50;;;;;;;35.24;25.63;100257.75;4994270;28;20134;-80
2021/06/20 10:52:16;;;;;;;8.02;3.33;;;;;;;34.46;26.21;100251.00;4993750;28;20046;-80
2021/06/20 10:54:42;;;;;;;5.07;3.85;;;;;;;35.31;25.94;100248.16;4993102;28;20030;-81
2021/06/20 10:57:07;;;;;;;10.37;4.20;;;;;;;35.56;25.11;100243.03;4975960;28;20035;-81
2021/06/20 10:59:33;;;;;;;4.17;3.23;;;;;;;34.54;26.67;100239.50;4993945;28;20471;-78
2021/06/20 11:01:59;;;;;;;6.37;3.57;;;;;;;34.06;27.57;100246.78;5012078;28;20284;-81
2021/06/20 11:04:25;;;;;;;5.47;3.23;;;;;;;34.00;26.93;100246.75;5023625;28;20042;-82
2021/06/20 11:06:55;;;;;;;6.97;3.87;;;;;;;33.67;27.26;100245.84;5015498;28;20440;-79
2021/06/20 11:09:22;;;;;;;55.28;37.85;;;;;;;33.61;27.58;100238.66;5031493;28;20045;-80
2021/06/20 11:11:53;;;;;;;9.65;3.92;;;;;;;33.70;27.33;100239.03;5031974;28;20548;-76
2021/06/20 11:14:20;;;;;;;4.55;3.83;;;;;;;33.61;27.45;100238.66;5032730;28;20059;-79
2021/06/20 11:16:47;;;;;;;;;;;;;;;33.50;27.74;100237.72;5033026;28;20045;-75
2021/06/20 11:19:25;;;;;;;5.57;2.90;;;;;;;32.92;28.43;100229.03;5032892;28;19909;-76
2021/06/20 11:21:57;;;;;;;4.55;3.25;;;;;;;32.54;29.03;100230.66;5015624;28;20038;-80
2021/06/20 11:24:33;;;;;;;5.25;3.22;;;;;;;32.64;28.65;100225.34;5004600;28;20046;-76